Time;durP1;ratioP1;P1;durP2;ratioP2;P2;SDS_P1;SDS_P2;PMS_P1;PMS_P2;Temp;Humidity;BMP_temperature;BMP_pressure;BME280_temperature;BME280_humidity;BME280_pressure;Samples;Min_cycle;Max_cycle;Signal;HPM_P1;HPM_P2
2023/05/03 00:00:08;;;;;;;2.00;1.73;;;10.90;99.90;;;;;;5042483;28;20526;-61
2023/05/03 00:02:37;;;;;;;4.83;2.17;;;10.90;99.90;;;;;;5041555;28;20511;-60
2023/05/03 00:05:07;;;;;;;2.80;1.90;;;10.80;99.90;;;;;;5042181;28;20478;-60
2023/05/03 00:07:34;;;;;;;3.97;1.60;;;11.80;99.90;;;;;;5042196;28;20460;-58
2023/05/03 00:10:01;;;;;;;3.23;1.73;;;10.70;99.90;;;;;;5042155;28;20452;-61
2023/05/03 00:12:29;;;;;;;5.53;1.60;;;10.70;99.90;;;;;;5042596;28;20459;-60
2023/05/03 00:14:56;;;;;;;5.80;1.37;;;10.70;99.90;;;;;;5044382;28;20559;-62
2023/05/03 00:17:24;;;;;;;2.17;1.97;;;10.70;99.90;;;;;;5041929;28;20519;-58
2023/05/03 00:19:52;;;;;;;7.27;2.30;;;10.70;99.90;;;;;;5051121;28;20436;-61
2023/05/03 00:22:19;;;;;;;3.10;1.80;;;10.60;99.90;;;;;;5047540;28;20468;-60
2023/05/03 00:24:46;;;;;;;3.70;1.40;;;10.50;99.90;;;;;;5047908;28;20475;-60
2023/05/03 00:27:13;;;;;;;2.90;2.00;;;10.50;99.90;;;;;;5047929;28;20440;-59
2023/05/03 00:29:40;;;;;;;3.00;1.80;;;10.40;99.90;;;;;;5049391;28;20482;-59
2023/05/03 00:32:09;;;;;;;6.90;1.80;;;10.40;99.90;;;;;;5049893;28;20479;-59
2023/05/03 00:34:38;;;;;;;2.77;2.00;;;10.30;99.90;;;;;;5051220;28;20494;-59
2023/05/03 00:37:05;;;;;;;2.90;1.90;;;10.40;99.90;;;;;;5050325;28;20519;-60
2023/05/03 00:39:32;;;;;;;4.87;2.07;;;10.20;99.90;;;;;;5051537;28;20567;-60
2023/05/03 00:42:00;;;;;;;3.43;1.97;;;10.20;99.90;;;;;;5047901;28;20479;-60
2023/05/03 00:44:27;;;;;;;4.53;2.40;;;10.20;99.90;;;;;;5045613;28;20440;-61
2023/05/03 00:46:55;;;;;;;2.03;1.50;;;10.10;99.90;;;;;;5045741;28;20439;-60
2023/05/03 00:49:31;;;;;;;3.10;1.60;;;10.10;99.90;;;;;;5046165;28;20505;-60
2023/05/03 00:51:59;;;;;;;2.63;1.80;;;10.00;99.90;;;;;;5046263;28;20471;-60
2023/05/03 00:54:28;;;;;;;1.70;1.47;;;10.00;99.90;;;;;;5046088;28;20535;-60
2023/05/03 00:56:56;;;;;;;3.97;1.83;;;9.90;99.90;;;;;;5046666;28;20467;-60
2023/05/03 00:59:26;;;;;;;5.67;1.43;;;9.90;99.90;;;;;;5045199;28;20478;-58
2023/05/03 01:01:53;;;;;;;2.10;1.60;;;9.80;99.90;;;;;;5046714;28;20444;-60
2023/05/03 01:04:20;;;;;;;4.73;2.07;;;9.80;99.90;;;;;;5047072;28;20507;-59
2023/05/03 01:06:56;;;;;;;3.03;1.60;;;9.80;99.90;;;;;;5047457;28;20452;-60
2023/05/03 01:09:32;;;;;;;3.80;2.17;;;9.80;99.90;;;;;;5046969;28;20463;-59
2023/05/03 01:12:08;;;;;;;7.60;1.60;;;9.80;99.90;;;;;;5047333;28;20477;-60
2023/05/03 01:14:43;;;;;;;3.00;1.67;;;9.70;99.90;;;;;;5046075;28;20487;-59
2023/05/03 01:17:14;;;;;;;2.27;1.70;;;9.60;99.90;;;;;;5047004;28;20944;-60
2023/05/03 01:19:44;;;;;;;4.13;1.97;;;9.50;99.90;;;;;;5047093;28;21014;-61
2023/05/03 01:22:21;;;;;;;2.10;1.90;;;9.50;99.90;;;;;;5046968;28;20452;-59
2023/05/03 01:24:59;;;;;;;1.90;1.70;;;9.50;99.90;;;;;;5058687;28;20431;-56
2023/05/03 01:27:26;;;;;;;2.70;1.73;;;9.40;99.90;;;;;;5058699;28;20408;-59
2023/05/03 01:29:53;;;;;;;3.07;1.50;;;9.40;99.90;;;;;;5058351;28;20432;-58
2023/05/03 01:32:31;;;;;;;4.47;1.63;;;9.30;99.90;;;;;;5053233;28;20515;-59
2023/05/03 01:35:04;;;;;;;4.20;1.73;;;9.30;99.90;;;;;;5054150;28;20464;-60
2023/05/03 01:37:35;;;;;;;3.67;1.80;;;9.20;99.90;;;;;;5045787;28;20491;-60
2023/05/03 01:40:07;;;;;;;2.77;1.73;;;9.20;99.90;;;;;;5045897;28;20431;-61
2023/05/03 01:42:39;;;;;;;4.80;2.07;;;9.10;99.90;;;;;;5046073;28;20476;-59
2023/05/03 01:45:08;;;;;;;2.80;1.70;;;9.10;99.90;;;;;;5045571;28;20472;-60
2023/05/03 01:47:34;;;;;;;13.70;2.00;;;9.00;99.90;;;;;;5045046;28;20443;-59
2023/05/03 01:50:01;;;;;;;3.67;2.50;;;9.00;99.90;;;;;;5043468;28;20450;-59
2023/05/03 01:52:29;;;;;;;4.13;2.60;;;9.00;99.90;;;;;;5040687;28;20444;-59
2023/05/03 01:54:56;;;;;;;2.80;1.93;;;8.90;99.90;;;;;;5040084;28;20490;-60
2023/05/03 01:57:24;;;;;;;2.10;1.63;;;8.90;99.90;;;;;;5040182;28;20476;-59
2023/05/03 01:59:51;;;;;;;2.67;1.90;;;8.90;99.90;;;;;;5039984;28;20538;-59
2023/05/03 02:02:18;;;;;;;2.80;1.80;;;8.90;99.90;;;;;;5041378;28;20436;-60
2023/05/03 02:04:45;;;;;;;2.17;1.80;;;8.80;99.90;;;;;;5043156;28;20829;-61
2023/05/03 02:07:11;;;;;;;2.50;1.70;;;8.80;99.90;;;;;;5042566;28;20572;-60
2023/05/03 02:09:38;;;;;;;3.57;1.57;;;8.80;99.90;;;;;;5041274;28;20524;-60
2023/05/03 02:12:05;;;;;;;4.70;2.10;;;8.80;99.90;;;;;;5039691;28;20480;-58
2023/05/03 02:14:34;;;;;;;2.03;1.60;;;8.70;99.90;;;;;;5039785;28;20500;-60
2023/05/03 02:17:03;;;;;;;2.33;1.50;;;8.70;99.90;;;;;;5039551;28;20516;-60
2023/05/03 02:19:29;;;;;;;5.57;1.80;;;8.70;99.90;;;;;;5039960;28;20504;-60
2023/05/03 02:21:57;;;;;;;3.63;1.53;;;8.70;99.90;;;;;;5040555;28;20517;-60
2023/05/03 02:24:28;;;;;;;3.70;2.10;;;8.60;99.90;;;;;;5039818;28;20475;-59
2023/05/03 02:26:55;;;;;;;4.97;2.10;;;8.60;99.90;;;;;;5039688;28;20444;-61
2023/05/03 02:29:27;;;;;;;3.10;1.93;;;8.50;99.90;;;;;;5038955;28;20444;-60
2023/05/03 02:31:55;;;;;;;4.83;2.93;;;8.50;99.90;;;;;;5039653;28;20502;-61
2023/05/03 02:34:22;;;;;;;2.87;1.80;;;8.40;99.90;;;;;;5040554;28;20498;-60
2023/05/03 02:36:51;;;;;;;4.30;2.13;;;8.40;99.90;;;;;;5039224;28;20490;-58
2023/05/03 02:39:18;;;;;;;3.90;1.97;;;8.40;99.90;;;;;;5039591;28;20433;-60
2023/05/03 02:41:45;;;;;;;3.20;2.00;;;8.40;99.90;;;;;;5039522;28;20524;-60
2023/05/03 02:44:12;;;;;;;6.63;2.03;;;8.30;99.90;;;;;;5039542;28;20537;-60
2023/05/03 02:46:42;;;;;;;1.60;1.50;;;8.30;99.90;;;;;;5039765;28;20467;-60
2023/05/03 02:49:13;;;;;;;6.93;1.93;;;8.30;99.90;;;;;;5039392;28;20476;-60
2023/05/03 02:51:40;;;;;;;5.27;2.00;;;8.20;99.90;;;;;;5039344;28;20515;-59
2023/05/03 02:54:06;;;;;;;6.23;2.83;;;8.20;99.90;;;;;;5039479;28;20444;-60
2023/05/03 02:56:33;;;;;;;2.63;2.07;;;8.20;99.90;;;;;;5039060;28;20521;-59
2023/05/03 02:59:00;;;;;;;3.57;2.37;;;8.20;99.90;;;;;;5039551;28;20447;-60
2023/05/03 03:01:28;;;;;;;6.60;2.27;;;8.20;99.90;;;;;;5039048;28;20500;-60
2023/05/03 03:03:55;;;;;;;7.67;2.20;;;8.20;99.90;;;;;;5038990;28;20428;-59
2023/05/03 03:06:23;;;;;;;4.93;2.07;;;8.10;99.90;;;;;;5039634;28;20503;-61
2023/05/03 03:08:52;;;;;;;2.67;1.90;;;8.00;99.90;;;;;;5038978;28;20468;-58
2023/05/03 03:11:22;;;;;;;4.30;2.17;;;8.00;99.90;;;;;;5039395;28;20494;-59
2023/05/03 03:13:53;;;;;;;2.93;2.30;;;8.00;99.90;;;;;;5039259;28;20527;-60
2023/05/03 03:16:19;;;;;;;6.93;2.70;;;8.00;99.90;;;;;;5038874;28;20532;-60
2023/05/03 03:18:46;;;;;;;8.07;2.40;;;8.00;99.90;;;;;;5040732;28;20527;-60
2023/05/03 03:21:13;;;;;;;10.10;2.33;;;8.00;99.90;;;;;;5053787;28;20448;-59
2023/05/03 03:23:45;;;;;;;2.90;2.00;;;7.90;99.90;;;;;;5054188;28;20931;-58
2023/05/03 03:26:12;;;;;;;2.00;1.30;;;7.90;99.90;;;;;;5053586;28;20488;-57
2023/05/03 03:28:39;;;;;;;9.00;4.40;;;7.90;99.90;;;;;;5055082;28;20460;-59
2023/05/03 03:31:06;;;;;;;12.97;2.70;;;7.80;99.90;;;;;;5054219;28;20444;-60
2023/05/03 03:33:35;;;;;;;6.57;2.43;;;7.90;99.90;;;;;;5053432;28;20441;-59
2023/05/03 03:36:06;;;;;;;6.67;2.27;;;7.90;99.90;;;;;;5054085;28;20487;-55
2023/05/03 03:38:33;;;;;;;2.93;2.30;;;7.90;99.90;;;;;;5056736;28;20468;-60
2023/05/03 03:41:01;;;;;;;5.40;2.30;;;7.80;99.90;;;;;;5056192;28;20424;-56
2023/05/03 03:43:34;;;;;;;5.27;2.50;;;7.90;99.90;;;;;;5056516;28;20432;-57
2023/05/03 03:46:01;;;;;;;6.93;2.40;;;7.90;99.90;;;;;;5053829;28;20439;-54
2023/05/03 03:48:28;;;;;;;3.90;2.40;;;7.80;99.90;;;;;;5053544;28;20451;-58
2023/05/03 03:50:57;;;;;;;3.37;1.83;;;7.80;99.90;;;;;;5053445;28;20472;-60
2023/05/03 03:53:24;;;;;;;2.20;2.00;;;7.80;99.90;;;;;;5053328;28;20444;-58
2023/05/03 03:55:51;;;;;;;1.50;1.33;;;7.80;99.90;;;;;;5047051;28;20851;-60
2023/05/03 03:58:19;;;;;;;4.67;2.23;;;7.80;99.90;;;;;;5044643;28;20476;-60
2023/05/03 04:00:46;;;;;;;5.63;2.40;;;7.80;99.90;;;;;;5044464;28;20444;-59
2023/05/03 04:03:16;;;;;;;3.73;1.63;;;7.80;99.90;;;;;;5044560;28;20500;-60
2023/05/03 04:05:43;;;;;;;4.97;1.80;;;7.80;99.90;;;;;;5044560;28;20905;-60
2023/05/03 04:08:10;;;;;;;3.53;1.60;;;7.80;99.90;;;;;;5044608;28;20799;-59
2023/05/03 04:10:37;;;;;;;3.70;2.20;;;7.70;99.90;;;;;;5047456;28;20451;-56
2023/05/03 04:13:03;;;;;;;9.07;2.43;;;7.70;99.90;;;;;;5060065;28;20463;-57
2023/05/03 04:15:32;;;;;;;3.80;1.87;;;7.70;99.90;;;;;;5059651;28;20488;-60
2023/05/03 04:17:59;;;;;;;3.83;2.53;;;7.70;99.90;;;;;;5057732;28;20431;-60
2023/05/03 04:20:25;;;;;;;7.83;2.80;;;7.70;99.90;;;;;;5055891;28;20448;-58
2023/05/03 04:22:52;;;;;;;3.20;2.10;;;7.70;99.90;;;;;;5048165;28;20444;-60
2023/05/03 04:25:19;;;;;;;5.33;1.53;;;7.70;99.90;;;;;;5048240;28;20512;-57
2023/05/03 04:27:47;;;;;;;4.47;2.60;;;7.70;99.90;;;;;;5048435;28;20468;-58
2023/05/03 04:30:16;;;;;;;6.77;2.70;;;7.70;99.90;;;;;;5048333;28;20459;-60
2023/05/03 04:32:44;;;;;;;8.13;2.07;;;7.70;99.90;;;;;;5048841;28;20475;-60
2023/05/03 04:35:11;;;;;;;4.33;2.40;;;7.70;99.90;;;;;;5048191;28;20495;-59
2023/05/03 04:37:39;;;;;;;6.80;2.00;;;7.70;99.90;;;;;;5043004;28;20451;-61
2023/05/03 04:40:11;;;;;;;6.17;2.73;;;7.70;99.90;;;;;;5042294;28;20483;-60
2023/05/03 04:42:38;;;;;;;4.73;2.50;;;7.70;99.90;;;;;;5042412;28;20432;-58
2023/05/03 04:45:08;;;;;;;10.00;2.83;;;7.80;99.90;;;;;;5042382;28;20940;-60
2023/05/03 04:47:37;;;;;;;3.77;2.60;;;7.80;99.90;;;;;;5042435;28;20454;-60
2023/05/03 04:50:07;;;;;;;6.13;2.57;;;7.80;99.90;;;;;;5042298;28;20459;-60
2023/05/03 04:52:34;;;;;;;8.00;2.70;;;7.80;99.90;;;;;;5041826;28;20478;-58
2023/05/03 04:55:03;;;;;;;15.90;2.87;;;7.80;99.90;;;;;;5042188;28;20638;-59
2023/05/03 04:57:31;;;;;;;4.60;1.93;;;8.00;99.90;;;;;;5041940;28;20458;-58
2023/05/03 05:00:09;;;;;;;5.40;2.77;;;7.90;99.90;;;;;;5041552;28;20457;-60
2023/05/03 05:02:36;;;;;;;3.57;2.03;;;7.90;99.90;;;;;;5042058;28;20432;-60
2023/05/03 05:05:03;;;;;;;5.03;2.80;;;7.90;99.90;;;;;;5042141;28;20567;-60
2023/05/03 05:07:34;;;;;;;3.43;2.17;;;7.90;99.90;;;;;;5044264;28;20524;-57
2023/05/03 05:10:01;;;;;;;3.20;2.57;;;8.00;99.90;;;;;;5057003;28;20425;-56
2023/05/03 05:12:28;;;;;;;3.43;2.27;;;8.00;99.90;;;;;;5052008;28;20432;-58
2023/05/03 05:14:55;;;;;;;5.57;2.03;;;7.90;99.90;;;;;;5047490;28;20792;-59
2023/05/03 05:17:25;;;;;;;6.60;2.57;;;7.90;99.90;;;;;;5045124;28;20550;-60
2023/05/03 05:19:52;;;;;;;2.73;2.17;;;7.90;99.90;;;;;;5041631;28;20460;-60
2023/05/03 05:22:19;;;;;;;4.83;2.53;;;7.90;99.90;;;;;;5052807;28;20458;-61
2023/05/03 05:24:48;;;;;;;8.87;2.17;;;8.00;99.90;;;;;;5047021;28;20443;-60
2023/05/03 05:27:14;;;;;;;11.10;2.70;;;8.10;99.90;;;;;;5046669;28;20956;-61
2023/05/03 05:29:41;;;;;;;9.37;2.90;;;8.10;99.90;;;;;;5046354;28;20496;-56
2023/05/03 05:32:08;;;;;;;3.97;1.93;;;8.10;99.90;;;;;;5046489;28;20464;-60
2023/05/03 05:34:35;;;;;;;5.43;2.53;;;8.10;99.90;;;;;;5052128;28;20455;-60
2023/05/03 05:37:04;;;;;;;6.23;3.20;;;8.20;99.90;;;;;;5058169;28;20460;-57
2023/05/03 05:39:31;;;;;;;9.73;1.83;;;8.20;99.90;;;;;;5055358;28;20444;-60
2023/05/03 05:42:00;;;;;;;5.37;2.17;;;8.30;99.90;;;;;;5056034;28;20475;-60
2023/05/03 05:44:27;;;;;;;4.83;2.20;;;8.30;99.90;;;;;;5047448;28;20451;-59
2023/05/03 05:46:53;;;;;;;4.93;2.40;;;8.40;99.90;;;;;;5046740;28;20472;-58
2023/05/03 05:49:20;;;;;;;10.93;2.27;;;8.40;99.90;;;;;;5045694;28;20506;-59
2023/05/03 05:51:47;;;;;;;8.90;2.17;;;8.40;99.90;;;;;;5046042;28;20514;-59
2023/05/03 05:54:15;;;;;;;9.10;2.90;;;8.50;99.90;;;;;;5045888;28;20448;-60
2023/05/03 05:56:41;;;;;;;5.30;2.20;;;8.50;99.90;;;;;;5046197;28;20480;-57
2023/05/03 05:59:10;;;;;;;15.37;2.73;;;8.50;99.90;;;;;;5045824;28;20444;-59
2023/05/03 06:01:40;;;;;;;4.70;2.70;;;8.60;99.90;;;;;;5045045;28;20472;-57
2023/05/03 06:04:07;;;;;;;5.83;2.90;;;8.60;99.90;;;;;;5046330;28;20452;-58
2023/05/03 06:06:34;;;;;;;3.77;2.40;;;8.60;99.90;;;;;;5045066;28;20527;-60
2023/05/03 06:09:01;;;;;;;6.10;2.80;;;8.70;99.90;;;;;;5044931;28;20539;-59
2023/05/03 06:11:28;;;;;;;5.17;3.20;;;8.80;99.90;;;;;;5044878;28;20766;-59
2023/05/03 06:13:55;;;;;;;2.80;2.33;;;8.90;99.90;;;;;;5044501;28;20452;-60
2023/05/03 06:16:24;;;;;;;5.93;2.80;;;8.90;99.90;;;;;;5044107;28;20566;-60
2023/05/03 06:18:52;;;;;;;5.30;3.50;;;9.00;99.90;;;;;;5043856;28;20791;-59
2023/05/03 06:21:19;;;;;;;5.87;2.63;;;9.00;99.90;;;;;;5044256;28;20470;-62
2023/05/03 06:23:46;;;;;;;3.73;2.20;;;9.10;99.90;;;;;;5043780;28;20512;-57
2023/05/03 06:26:12;;;;;;;3.97;2.03;;;9.10;99.90;;;;;;5043632;28;20467;-60
2023/05/03 06:28:39;;;;;;;10.57;2.40;;;9.20;99.90;;;;;;5043815;28;20472;-60
2023/05/03 06:31:06;;;;;;;2.50;1.73;;;9.20;99.90;;;;;;5044198;28;20454;-61
2023/05/03 06:33:35;;;;;;;6.70;2.50;;;9.30;99.90;;;;;;5044243;28;20458;-60
2023/05/03 06:36:03;;;;;;;2.53;1.40;;;9.40;99.90;;;;;;5042270;28;20496;-62
2023/05/03 06:38:30;;;;;;;6.13;2.40;;;9.50;99.90;;;;;;5043461;28;21001;-60
2023/05/03 06:40:57;;;;;;;2.60;1.50;;;9.50;99.90;;;;;;5042918;28;20963;-60
2023/05/03 06:43:24;;;;;;;3.93;1.53;;;9.60;99.90;;;;;;5042715;28;20440;-60
2023/05/03 06:45:52;;;;;;;2.93;1.77;;;9.60;99.90;;;;;;5037558;28;20509;-60
2023/05/03 06:48:20;;;;;;;4.97;2.40;;;9.60;99.90;;;;;;5037518;28;20821;-61
2023/05/03 06:50:49;;;;;;;5.93;2.13;;;9.70;99.90;;;;;;5038737;28;20448;-59
2023/05/03 06:53:16;;;;;;;1.93;1.20;;;9.80;99.90;;;;;;5041124;28;20425;-57
2023/05/03 06:55:44;;;;;;;2.20;2.00;;;9.90;99.90;;;;;;5054820;28;20472;-56
2023/05/03 06:58:11;;;;;;;3.50;1.77;;;9.90;99.90;;;;;;5055786;28;20427;-54
2023/05/03 07:00:39;;;;;;;3.13;1.43;;;10.00;99.90;;;;;;5055773;28;20445;-53
2023/05/03 07:03:06;;;;;;;2.73;1.10;;;10.10;99.90;;;;;;5056652;28;20444;-54
2023/05/03 07:05:33;;;;;;;2.97;1.60;;;10.10;99.90;;;;;;5054701;28;20910;-51
2023/05/03 07:08:02;;;;;;;7.60;1.67;;;10.10;99.90;;;;;;5052289;28;20471;-56
2023/05/03 07:10:29;;;;;;;3.83;1.53;;;10.10;99.90;;;;;;5049446;28;20532;-54
2023/05/03 07:12:56;;;;;;;9.13;2.30;;;10.10;99.90;;;;;;5042478;28;20447;-56
2023/05/03 07:15:23;;;;;;;3.37;2.13;;;10.20;99.90;;;;;;5041371;28;20791;-56
2023/05/03 07:17:50;;;;;;;2.07;1.60;;;10.30;99.90;;;;;;5038064;28;21163;-54
2023/05/03 07:20:17;;;;;;;5.27;2.10;;;10.40;99.90;;;;;;5038123;28;20940;-54
2023/05/03 07:22:44;;;;;;;2.93;1.80;;;10.50;99.90;;;;;;5037591;28;20459;-57
2023/05/03 07:25:15;;;;;;;5.00;1.83;;;10.60;99.90;;;;;;5038278;28;20576;-55
2023/05/03 07:27:42;;;;;;;3.30;1.70;;;10.60;99.90;;;;;;5040575;28;20460;-57
2023/05/03 07:30:09;;;;;;;3.67;1.77;;;10.80;99.90;;;;;;5041199;28;20500;-57
2023/05/03 07:32:36;;;;;;;3.00;2.20;;;10.90;99.90;;;;;;5040517;28;20475;-56
2023/05/03 07:35:03;;;;;;;5.43;2.23;;;10.90;99.90;;;;;;5041063;28;20789;-56
2023/05/03 07:37:30;;;;;;;3.13;1.60;;;10.90;99.90;;;;;;5041378;28;20484;-57
2023/05/03 07:39:57;;;;;;;2.60;1.67;;;11.10;99.90;;;;;;5040485;28;20478;-52
2023/05/03 07:42:25;;;;;;;3.57;2.00;;;11.30;99.90;;;;;;5040232;28;20551;-57
2023/05/03 07:44:54;;;;;;;5.10;1.70;;;11.60;99.90;;;;;;5039407;28;20523;-56
2023/05/03 07:47:21;;;;;;;3.90;1.57;;;12.60;99.90;;;;;;5037056;28;20478;-54
2023/05/03 07:49:49;;;;;;;1.57;1.30;;;14.30;99.60;;;;;;5037255;28;20448;-59
2023/05/03 07:52:16;;;;;;;7.90;2.60;;;16.50;92.60;;;;;;5036924;28;20444;-56
2023/05/03 07:54:44;;;;;;;4.93;1.57;;;18.60;77.80;;;;;;5036263;28;20468;-57
2023/05/03 07:57:12;;;;;;;21.17;2.40;;;20.40;64.90;;;;;;5040004;28;20479;-57
2023/05/03 07:59:40;;;;;;;5.10;1.80;;;21.10;56.00;;;;;;5038685;28;20535;-56
2023/05/03 08:02:08;;;;;;;4.67;2.00;;;21.90;54.10;;;;;;5037966;28;20511;-54
2023/05/03 08:04:35;;;;;;;3.00;1.77;;;22.60;51.40;;;;;;5038164;28;20483;-53
2023/05/03 08:07:03;;;;;;;7.07;1.93;;;23.50;49.40;;;;;;5037153;28;20480;-56
2023/05/03 08:09:30;;;;;;;4.07;2.10;;;24.70;46.70;;;;;;5035640;28;20448;-57
2023/05/03 08:11:56;;;;;;;3.63;1.80;;;25.20;44.20;;;;;;5034474;28;20539;-57
2023/05/03 08:14:24;;;;;;;4.27;2.30;;;25.00;43.70;;;;;;5034786;28;20531;-55
2023/05/03 08:16:52;;;;;;;4.17;2.57;;;25.40;42.90;;;;;;5034948;28;20475;-57
2023/05/03 08:19:19;;;;;;;4.77;2.00;;;25.70;41.90;;;;;;5034792;28;20476;-58
2023/05/03 08:21:47;;;;;;;2.53;1.93;;;25.60;41.60;;;;;;5035013;28;20539;-57
2023/05/03 08:24:14;;;;;;;2.77;2.23;;;25.40;40.80;;;;;;5035294;28;20452;-56
2023/05/03 08:26:41;;;;;;;4.27;2.30;;;25.60;40.20;;;;;;5035010;28;20459;-57
2023/05/03 08:29:08;;;;;;;3.10;1.70;;;25.30;40.40;;;;;;5034852;28;20452;-56
2023/05/03 08:31:35;;;;;;;4.27;2.10;;;25.40;40.50;;;;;;5036649;28;20472;-56
2023/05/03 08:34:05;;;;;;;5.90;2.20;;;25.70;39.90;;;;;;5037200;28;20471;-59
2023/05/03 08:36:32;;;;;;;3.20;2.20;;;25.70;39.50;;;;;;5055146;28;20484;-56
2023/05/03 08:38:59;;;;;;;7.73;2.73;;;25.30;39.30;;;;;;5055739;28;20426;-57
2023/05/03 08:41:29;;;;;;;8.07;2.63;;;25.00;39.80;;;;;;5055569;28;20451;-57
2023/05/03 08:43:57;;;;;;;5.00;2.50;;;24.70;40.30;;;;;;5055338;28;20486;-54
2023/05/03 08:46:27;;;;;;;3.97;2.30;;;25.00;40.10;;;;;;5055811;28;20504;-52
2023/05/03 08:48:55;;;;;;;7.63;2.53;;;25.00;39.90;;;;;;5055549;28;20455;-50
2023/05/03 08:51:24;;;;;;;2.70;2.20;;;25.10;39.30;;;;;;5050623;28;20440;-56
2023/05/03 08:53:54;;;;;;;3.50;1.93;;;25.10;39.50;;;;;;5049607;28;20448;-57
2023/05/03 08:56:28;;;;;;;6.47;2.43;;;25.20;39.50;;;;;;5040642;28;20944;-58
2023/05/03 08:58:56;;;;;;;2.33;2.00;;;25.20;39.10;;;;;;5040537;28;20432;-58
2023/05/03 09:01:22;;;;;;;5.33;2.37;;;25.20;39.30;;;;;;5039442;28;20458;-58
2023/05/03 09:03:51;;;;;;;6.90;2.20;;;25.20;39.10;;;;;;5038110;28;20495;-57
2023/05/03 09:06:27;;;;;;;4.17;2.20;;;25.20;39.00;;;;;;5038406;28;20542;-52
2023/05/03 09:08:55;;;;;;;4.37;2.00;;;25.10;39.10;;;;;;5038299;28;20539;-53
2023/05/03 09:11:22;;;;;;;12.77;2.93;;;25.20;39.30;;;;;;5041555;28;20511;-56
2023/05/03 09:13:52;;;;;;;4.43;2.03;;;25.20;39.20;;;;;;5040538;28;20573;-57
2023/05/03 09:16:23;;;;;;;4.23;1.63;;;25.10;39.20;;;;;;5039561;28;20777;-58
2023/05/03 09:18:58;;;;;;;9.43;2.40;;;25.00;40.50;;;;;;5038234;28;20634;-56
2023/05/03 09:21:26;;;;;;;4.70;1.87;;;24.80;38.60;;;;;;5038250;28;20471;-54
2023/05/03 09:23:53;;;;;;;3.50;2.03;;;24.90;39.00;;;;;;5038559;28;20502;-56
2023/05/03 09:26:31;;;;;;;2.50;1.80;;;25.10;38.50;;;;;;5040077;28;20444;-56
2023/05/03 09:29:00;;;;;;;7.27;2.20;;;25.10;38.40;;;;;;5040113;28;20475;-57
2023/05/03 09:31:27;;;;;;;3.50;2.17;;;25.20;38.10;;;;;;5040048;28;20448;-53
2023/05/03 09:33:55;;;;;;;4.90;2.37;;;25.40;38.40;;;;;;5040144;28;20503;-58
2023/05/03 09:36:22;;;;;;;6.20;2.33;;;25.40;38.40;;;;;;5039310;28;20421;-57
2023/05/03 09:38:50;;;;;;;4.70;2.00;;;25.40;38.70;;;;;;5037907;28;20551;-58
2023/05/03 09:41:27;;;;;;;3.40;2.20;;;25.00;38.60;;;;;;5037557;28;20468;-56
2023/05/03 09:43:55;;;;;;;7.10;2.60;;;24.80;39.00;;;;;;5038119;28;20432;-57
2023/05/03 09:46:24;;;;;;;3.40;2.17;;;24.90;39.30;;;;;;5037789;28;20487;-56
2023/05/03 09:48:54;;;;;;;2.93;2.60;;;25.20;39.30;;;;;;5037748;28;20448;-55
2023/05/03 09:51:23;;;;;;;4.50;2.20;;;24.80;39.30;;;;;;5037667;28;20456;-55
2023/05/03 09:53:52;;;;;;;3.50;1.70;;;24.40;39.10;;;;;;5037158;28;20468;-56
2023/05/03 09:56:25;;;;;;;4.33;2.37;;;24.30;39.40;;;;;;5037436;28;20456;-58
2023/05/03 09:58:52;;;;;;;5.00;1.90;;;24.20;39.20;;;;;;5037092;28;20510;-56
2023/05/03 10:01:21;;;;;;;8.70;2.10;;;24.20;39.20;;;;;;5037321;28;20439;-57
2023/05/03 10:03:49;;;;;;;4.17;2.20;;;24.20;39.30;;;;;;5037566;28;20756;-59
2023/05/03 10:06:24;;;;;;;8.97;2.17;;;24.00;39.80;;;;;;5037170;28;20476;-56
2023/05/03 10:08:58;;;;;;;2.70;1.60;;;24.10;40.40;;;;;;5036520;28;20467;-58
2023/05/03 10:11:27;;;;;;;3.87;2.20;;;24.20;40.10;;;;;;5036927;28;20470;-58
2023/05/03 10:13:54;;;;;;;2.20;2.00;;;23.70;39.90;;;;;;5037155;28;20441;-57
2023/05/03 10:16:26;;;;;;;11.83;2.53;;;23.00;41.20;;;;;;5037132;28;20448;-60
2023/05/03 10:18:58;;;;;;;2.10;1.93;;;22.80;41.40;;;;;;5044099;28;20460;-59
2023/05/03 10:21:35;;;;;;;1.80;1.70;;;22.70;41.80;;;;;;5046044;28;20424;-58
2023/05/03 10:24:14;;;;;;;4.43;2.07;;;22.70;41.20;;;;;;5053213;28;20467;-57
2023/05/03 10:26:42;;;;;;;3.70;2.00;;;22.80;40.80;;;;;;5053629;28;20471;-60
2023/05/03 10:30:01;;;;;;;3.40;1.67;;;22.70;41.10;;;;;;5052975;28;20498;-58
2023/05/03 10:32:32;;;;;;;2.17;1.70;;;22.70;40.70;;;;;;5053215;28;20592;-56
2023/05/03 10:35:01;;;;;;;3.57;1.80;;;22.50;41.10;;;;;;5053381;28;20503;-59
2023/05/03 10:37:28;;;;;;;3.33;2.17;;;22.30;41.10;;;;;;5053342;28;20486;-60
2023/05/03 10:40:05;;;;;;;4.40;1.80;;;21.90;41.40;;;;;;5053209;28;20448;-56
2023/05/03 10:42:32;;;;;;;4.93;2.40;;;21.70;41.80;;;;;;5043758;28;20432;-57
2023/05/03 10:45:02;;;;;;;6.07;2.93;;;21.60;41.90;;;;;;5043567;28;20452;-59
2023/05/03 10:47:29;;;;;;;2.93;1.83;;;21.50;42.40;;;;;;5055757;28;20484;-58
2023/05/03 10:50:29;;;;;;;4.17;1.90;;;21.50;42.40;;;;;;5045248;28;20444;-58
2023/05/03 10:52:56;;;;;;;2.70;1.87;;;21.00;42.50;;;;;;5037881;28;20526;-57
2023/05/03 10:55:24;;;;;;;2.77;2.00;;;20.80;44.10;;;;;;5035515;28;20432;-58
2023/05/03 10:57:54;;;;;;;1.70;1.40;;;20.60;43.90;;;;;;5034915;28;21035;-57
2023/05/03 11:00:28;;;;;;;3.33;1.73;;;20.50;44.20;;;;;;5034999;28;20472;-58
2023/05/03 11:03:19;;;;;;;2.57;1.77;;;20.30;44.50;;;;;;5035436;28;20735;-57
2023/05/03 11:05:48;;;;;;;4.20;2.40;;;20.10;44.10;;;;;;5032002;28;20547;-58
2023/05/03 11:08:17;;;;;;;4.47;1.90;;;19.90;44.10;;;;;;5035265;28;20475;-58
2023/05/03 11:10:46;;;;;;;3.50;1.97;;;19.70;44.20;;;;;;5036234;28;20448;-57
2023/05/03 11:13:14;;;;;;;2.30;2.10;;;19.60;43.90;;;;;;5037978;28;20534;-57
2023/05/03 11:15:41;;;;;;;3.57;2.13;;;19.60;45.30;;;;;;5045649;28;20472;-51
2023/05/03 11:18:10;;;;;;;2.20;2.00;;;19.70;45.00;;;;;;5041207;28;20480;-58
2023/05/03 11:20:38;;;;;;;4.07;2.47;;;19.60;44.90;;;;;;5034514;28;20477;-59
2023/05/03 11:23:05;;;;;;;4.30;2.40;;;19.30;46.10;;;;;;5055488;28;20404;-50
2023/05/03 11:25:33;;;;;;;2.63;1.90;;;19.30;44.60;;;;;;5057541;28;20443;-52
2023/05/03 11:28:01;;;;;;;6.70;2.10;;;19.20;45.40;;;;;;5057046;28;20432;-56
2023/05/03 11:30:28;;;;;;;5.03;2.47;;;19.10;46.40;;;;;;5043737;28;20437;-61
2023/05/03 11:32:56;;;;;;;5.03;3.07;;;19.00;46.70;;;;;;5038239;28;20452;-55
2023/05/03 11:35:25;;;;;;;7.00;1.83;;;18.70;46.10;;;;;;5058530;28;20442;-52
2023/05/03 11:37:53;;;;;;;4.03;2.20;;;18.80;47.00;;;;;;5057488;28;20507;-57
2023/05/03 11:40:20;;;;;;;4.73;2.53;;;18.80;47.00;;;;;;5055701;28;20463;-57
2023/05/03 11:42:54;;;;;;;5.83;2.47;;;18.80;47.10;;;;;;5055207;28;20823;-57
2023/05/03 11:45:25;;;;;;;7.93;2.00;;;18.70;46.70;;;;;;5045427;28;20931;-55
2023/05/03 11:47:53;;;;;;;7.33;2.20;;;18.40;47.10;;;;;;5058427;28;20400;-49
2023/05/03 11:50:27;;;;;;;4.77;2.27;;;18.20;47.00;;;;;;5058132;28;20436;-56
2023/05/03 11:52:55;;;;;;;3.23;1.80;;;17.90;47.60;;;;;;5056289;28;20440;-58
2023/05/03 11:55:23;;;;;;;8.73;2.30;;;17.90;48.30;;;;;;5043082;28;20517;-53
2023/05/03 11:57:51;;;;;;;6.33;2.30;;;17.70;48.50;;;;;;5056896;28;20506;-59
2023/05/03 12:00:20;;;;;;;2.33;2.00;;;17.70;48.80;;;;;;5050574;28;20475;-58
2023/05/03 12:02:49;;;;;;;4.90;2.00;;;17.80;48.90;;;;;;5044316;28;20424;-52
2023/05/03 12:05:17;;;;;;;4.50;2.00;;;17.80;48.60;;;;;;5047849;28;20468;-62
2023/05/03 12:07:45;;;;;;;5.70;2.97;;;17.50;47.90;;;;;;5039446;28;20460;-57
2023/05/03 12:10:17;;;;;;;3.27;1.90;;;17.50;49.00;;;;;;5038948;28;20452;-58
2023/05/03 12:12:55;;;;;;;2.50;1.97;;;17.50;49.10;;;;;;5038338;28;20479;-59
2023/05/03 12:15:29;;;;;;;3.00;1.50;;;17.50;49.30;;;;;;5039708;28;20564;-56
2023/05/03 12:17:58;;;;;;;6.90;2.30;;;17.50;49.30;;;;;;5038250;28;20479;-58
2023/05/03 12:20:27;;;;;;;2.40;1.80;;;17.40;49.40;;;;;;5038288;28;20488;-57
2023/05/03 12:22:55;;;;;;;4.73;1.90;;;17.40;50.00;;;;;;5035056;28;20502;-59
2023/05/03 12:25:22;;;;;;;5.03;2.80;;;17.30;49.80;;;;;;5034220;28;20792;-56
2023/05/03 12:27:49;;;;;;;7.13;2.20;;;17.20;50.20;;;;;;5034695;28;20519;-55
2023/05/03 12:30:16;;;;;;;8.83;2.33;;;17.20;50.10;;;;;;5033824;28;20482;-57
2023/05/03 12:32:43;;;;;;;5.60;2.10;;;17.20;49.60;;;;;;5036199;28;20448;-55
2023/05/03 12:35:11;;;;;;;4.30;3.37;;;17.30;50.00;;;;;;5038785;28;20455;-58
2023/05/03 12:37:38;;;;;;;2.47;1.60;;;17.30;49.40;;;;;;5040011;28;20469;-57
2023/05/03 12:40:07;;;;;;;4.03;2.47;;;17.30;49.60;;;;;;5048881;28;20531;-58
2023/05/03 12:42:34;;;;;;;3.87;2.33;;;17.50;49.90;;;;;;5039372;28;20555;-56
2023/05/03 12:45:02;;;;;;;2.97;2.03;;;17.60;54.10;;;;;;5040046;28;20494;-57
2023/05/03 12:47:29;;;;;;;6.67;2.03;;;17.80;50.60;;;;;;5041584;28;20828;-53
2023/05/03 12:49:56;;;;;;;4.83;1.90;;;17.90;50.30;;;;;;5041271;28;20506;-58
2023/05/03 12:52:24;;;;;;;6.20;2.80;;;17.90;48.40;;;;;;5040952;28;20471;-54
2023/05/03 12:54:52;;;;;;;2.00;1.70;;;17.90;48.60;;;;;;5041258;28;20463;-55
2023/05/03 12:57:18;;;;;;;3.83;2.07;;;17.80;48.30;;;;;;5044198;28;20474;-52